Terminal Aerodrome Forecast
Issued by NWS

Home | Current Version | Previous Version | Graphics & Text | Print | Product List | Glossary On
Versions: 1 2 3 4 5 6 7 8 9 10 11 12 13 14 15
000
FTUS43 KTOP 152300
TAFFOE
TAF
KFOE 152320Z 1600/1624 01004KT P6SM SKC
      TEMPO 1611/1614 3SM BR
     FM161400 13006KT P6SM FEW150=

USA.gov is the U.S. government's official web portal to all federal, state and local government web resources and services.